createdAt,value
2023-05-18T00:00:28.115Z,15.20
2023-05-18T00:02:55.368Z,15.01
2023-05-18T00:05:24.273Z,15.09
2023-05-18T00:07:54.094Z,14.81
2023-05-18T00:10:21.064Z,14.80
2023-05-18T00:12:48.212Z,14.92
2023-05-18T00:15:15.314Z,14.83
2023-05-18T00:17:47.247Z,15.01
2023-05-18T00:20:15.357Z,14.71
2023-05-18T00:22:45.606Z,14.81
2023-05-18T00:25:32.221Z,15.01
2023-05-18T00:28:00.752Z,14.62
2023-05-18T00:30:27.747Z,14.66
2023-05-18T00:32:59.621Z,14.69
2023-05-18T00:35:27.104Z,14.94
2023-05-18T00:37:57.216Z,14.86
2023-05-18T00:40:26.594Z,14.82
2023-05-18T00:42:55.272Z,14.51
2023-05-18T00:45:22.362Z,14.51
2023-05-18T00:47:52.061Z,14.80
2023-05-18T00:50:19.332Z,14.59
2023-05-18T00:52:47.800Z,14.86
2023-05-18T00:55:14.697Z,14.51
2023-05-18T00:57:45.584Z,14.45
2023-05-18T01:00:14.317Z,14.35
2023-05-18T01:02:54.495Z,14.38
2023-05-18T01:05:22.504Z,14.41
2023-05-18T01:07:59.103Z,14.55
2023-05-18T01:10:28.481Z,14.54
2023-05-18T01:12:58.530Z,14.41
2023-05-18T01:15:33.034Z,14.59
2023-05-18T01:18:33.992Z,14.53
2023-05-18T01:21:25.695Z,14.43
2023-05-18T01:24:11.752Z,14.50
2023-05-18T01:26:40.752Z,14.41
2023-05-18T01:29:10.020Z,14.43
2023-05-18T01:31:37.146Z,14.41
2023-05-18T01:34:04.031Z,14.44
2023-05-18T01:36:31.756Z,14.29
2023-05-18T01:39:01.706Z,14.36
2023-05-18T01:41:30.770Z,14.38
2023-05-18T01:44:08.956Z,14.31
2023-05-18T01:46:51.234Z,14.19
2023-05-18T01:49:29.751Z,14.36
2023-05-18T01:51:58.788Z,14.35
2023-05-18T01:54:27.189Z,14.31
2023-05-18T01:56:56.468Z,14.12
2023-05-18T01:59:24.196Z,14.10
2023-05-18T02:01:51.583Z,14.05
2023-05-18T02:04:27.633Z,14.06
2023-05-18T02:06:55.322Z,14.05
2023-05-18T02:09:22.616Z,13.98
2023-05-18T02:11:50.779Z,13.77
2023-05-18T02:14:17.677Z,13.97
2023-05-18T02:16:47.592Z,13.95
2023-05-18T02:19:15.040Z,14.06
2023-05-18T02:21:43.762Z,13.92
2023-05-18T02:24:11.997Z,14.03
2023-05-18T02:26:39.378Z,13.93
2023-05-18T02:29:11.907Z,13.98
2023-05-18T02:31:39.055Z,14.01
2023-05-18T02:34:06.827Z,13.98
2023-05-18T02:36:40.468Z,13.97
2023-05-18T02:39:19.728Z,13.91
2023-05-18T02:41:46.643Z,13.60
2023-05-18T02:44:13.545Z,13.67
2023-05-18T02:46:40.468Z,13.70
2023-05-18T02:49:12.820Z,13.79
2023-05-18T02:51:40.328Z,13.93
2023-05-18T02:54:07.635Z,13.77
2023-05-18T02:56:38.538Z,13.79
2023-05-18T02:59:15.310Z,13.55
2023-05-18T03:01:43.623Z,13.69
2023-05-18T03:04:10.885Z,13.66
2023-05-18T03:06:46.692Z,13.62
2023-05-18T03:09:16.264Z,13.74
2023-05-18T03:11:44.898Z,13.85
2023-05-18T03:14:12.113Z,13.38
2023-05-18T03:16:39.982Z,13.47
2023-05-18T03:19:14.621Z,13.75
2023-05-18T03:21:42.926Z,13.70
2023-05-18T03:24:10.192Z,13.62
2023-05-18T03:26:41.961Z,13.62
2023-05-18T03:29:09.554Z,13.58
2023-05-18T03:31:36.673Z,13.56
2023-05-18T03:34:03.614Z,13.60
2023-05-18T03:36:30.345Z,13.49
2023-05-18T03:38:57.216Z,13.30
2023-05-18T03:41:24.611Z,13.36
2023-05-18T03:43:53.690Z,13.40
2023-05-18T03:46:22.009Z,13.27
2023-05-18T03:48:49.156Z,13.38
2023-05-18T03:51:20.831Z,13.39
2023-05-18T03:53:48.556Z,13.18
2023-05-18T03:56:15.930Z,13.56
2023-05-18T03:58:44.506Z,13.60
2023-05-18T04:01:11.450Z,13.37
2023-05-18T04:03:38.402Z,13.47
2023-05-18T04:06:06.491Z,13.43
2023-05-18T04:08:34.525Z,13.46
2023-05-18T04:11:01.659Z,13.44
2023-05-18T04:13:28.682Z,13.43
2023-05-18T04:15:57.999Z,13.35
2023-05-18T04:18:30.485Z,13.48
2023-05-18T04:20:57.424Z,13.36
2023-05-18T04:23:24.368Z,13.38
2023-05-18T04:25:51.731Z,13.34
2023-05-18T04:28:19.380Z,13.46
2023-05-18T04:30:47.697Z,13.40
2023-05-18T04:33:16.477Z,13.46
2023-05-18T04:35:44.954Z,13.43
2023-05-18T04:38:12.263Z,13.39
2023-05-18T04:40:42.648Z,13.21
2023-05-18T04:43:10.896Z,13.35
2023-05-18T04:45:38.917Z,13.33
2023-05-18T04:48:06.831Z,13.13
2023-05-18T04:50:33.965Z,13.34
2023-05-18T04:53:02.482Z,13.46
2023-05-18T04:55:31.373Z,13.50
2023-05-18T04:58:03.482Z,13.68
2023-05-18T05:00:30.997Z,13.60
2023-05-18T05:02:58.608Z,13.47
2023-05-18T05:05:27.577Z,13.61
2023-05-18T05:07:56.295Z,13.75
2023-05-18T05:10:24.329Z,13.85
2023-05-18T05:12:51.734Z,13.78
2023-05-18T05:15:19.825Z,13.56
2023-05-18T05:17:49.947Z,13.75
2023-05-18T05:20:17.599Z,13.71
2023-05-18T05:22:44.906Z,13.76
2023-05-18T05:25:14.508Z,13.40
2023-05-18T05:27:41.469Z,13.54
2023-05-18T05:30:08.825Z,13.33
2023-05-18T05:32:37.343Z,13.60
2023-05-18T05:35:06.209Z,13.98
2023-05-18T05:37:35.096Z,14.06
2023-05-18T05:40:02.147Z,13.98
2023-05-18T05:42:32.753Z,13.80
2023-05-18T05:44:59.732Z,14.39
2023-05-18T05:47:27.689Z,14.32
2023-05-18T05:49:55.752Z,14.87
2023-05-18T05:52:22.805Z,15.03
2023-05-18T05:54:50.792Z,15.02
2023-05-18T05:57:17.652Z,15.61
2023-05-18T05:59:44.763Z,16.09
2023-05-18T06:02:12.392Z,17.92
2023-05-18T06:04:40.710Z,18.59
2023-05-18T06:07:07.546Z,19.56
2023-05-18T06:09:34.408Z,21.28
2023-05-18T06:12:01.242Z,21.77
2023-05-18T06:14:28.700Z,22.30
2023-05-18T06:16:57.449Z,21.26
2023-05-18T06:19:24.664Z,20.77
2023-05-18T06:21:52.746Z,21.15
2023-05-18T06:24:19.752Z,20.84
2023-05-18T06:27:06.784Z,20.82
2023-05-18T06:29:42.808Z,20.34
2023-05-18T06:32:28.211Z,19.48
2023-05-18T06:34:56.604Z,18.37
2023-05-18T06:37:23.654Z,17.86
2023-05-18T06:39:50.468Z,17.88
2023-05-18T06:42:26.147Z,17.84
2023-05-18T06:45:03.379Z,17.33
2023-05-18T06:47:48.726Z,17.78
2023-05-18T06:50:15.857Z,17.76
2023-05-18T06:52:42.785Z,17.24
2023-05-18T06:55:09.874Z,17.33
2023-05-18T06:57:37.202Z,17.12
2023-05-18T07:00:07.376Z,17.73
2023-05-18T07:02:34.559Z,17.32
2023-05-18T07:05:01.688Z,17.48
2023-05-18T07:07:28.613Z,16.82
2023-05-18T07:09:55.488Z,17.29
2023-05-18T07:12:22.723Z,16.78
2023-05-18T07:14:49.762Z,16.67
2023-05-18T07:17:19.548Z,17.24
2023-05-18T07:19:46.643Z,17.75
2023-05-18T07:22:19.940Z,18.06
2023-05-18T07:24:47.078Z,18.25
2023-05-18T07:27:14.002Z,18.22
2023-05-18T07:29:45.725Z,17.54
2023-05-18T07:32:13.953Z,18.20
2023-05-18T07:34:42.617Z,18.08
2023-05-18T07:37:15.065Z,17.78
2023-05-18T07:39:45.697Z,18.24
2023-05-18T07:42:12.493Z,18.04
2023-05-18T07:44:39.340Z,18.04
2023-05-18T07:47:06.581Z,18.26
2023-05-18T07:49:33.406Z,18.31
2023-05-18T07:52:02.284Z,17.99
2023-05-18T07:54:29.133Z,18.30
2023-05-18T07:56:58.523Z,17.38
2023-05-18T07:59:26.683Z,17.72
2023-05-18T08:01:53.453Z,17.13
2023-05-18T08:04:20.501Z,17.36
2023-05-18T08:06:47.219Z,17.66
2023-05-18T08:09:14.256Z,17.78
2023-05-18T08:11:42.621Z,18.05
2023-05-18T08:14:09.383Z,18.17
2023-05-18T08:16:37.746Z,17.86
2023-05-18T08:19:04.785Z,18.03
2023-05-18T08:21:33.234Z,17.99
2023-05-18T08:24:00.187Z,18.02
2023-05-18T08:26:27.305Z,17.99
2023-05-18T08:28:54.312Z,18.08
2023-05-18T08:31:21.452Z,18.26
2023-05-18T08:33:48.933Z,18.10
2023-05-18T08:36:17.017Z,18.40
2023-05-18T08:38:44.081Z,18.24
2023-05-18T08:41:31.381Z,18.23
2023-05-18T08:44:16.265Z,17.74
2023-05-18T08:46:51.118Z,17.75
2023-05-18T08:49:20.438Z,18.12
2023-05-18T08:51:58.391Z,18.38
2023-05-18T08:54:25.582Z,18.43
2023-05-18T08:56:55.865Z,18.18
2023-05-18T08:59:28.141Z,18.10
2023-05-18T09:01:55.592Z,17.82
2023-05-18T09:04:24.991Z,17.79
2023-05-18T09:06:54.591Z,18.47
2023-05-18T09:09:22.516Z,18.02
2023-05-18T09:11:50.296Z,18.40
2023-05-18T09:14:19.778Z,18.79
2023-05-18T09:16:46.580Z,18.46
2023-05-18T09:19:13.507Z,18.50
2023-05-18T09:21:40.925Z,18.56
2023-05-18T09:24:08.019Z,18.63
2023-05-18T09:26:34.866Z,18.76
2023-05-18T09:29:11.369Z,18.62
2023-05-18T09:31:38.359Z,18.93
2023-05-18T09:34:06.591Z,18.87
2023-05-18T09:36:34.629Z,19.02
2023-05-18T09:39:07.737Z,18.89
2023-05-18T09:41:34.775Z,18.98
2023-05-18T09:44:05.204Z,19.42
2023-05-18T09:46:32.717Z,18.98
2023-05-18T09:48:59.838Z,19.06
2023-05-18T09:51:27.003Z,19.20
2023-05-18T09:53:56.247Z,19.60
2023-05-18T09:56:24.590Z,19.49
2023-05-18T09:58:51.706Z,19.46
2023-05-18T10:01:19.242Z,19.63
2023-05-18T10:03:48.485Z,18.59
2023-05-18T10:06:17.745Z,18.84
2023-05-18T10:08:47.536Z,18.80
2023-05-18T10:11:18.000Z,19.25
2023-05-18T10:13:47.191Z,18.93
2023-05-18T10:16:16.039Z,18.93
2023-05-18T10:18:43.017Z,19.69
2023-05-18T10:21:12.548Z,19.64
2023-05-18T10:23:40.843Z,19.92
2023-05-18T10:26:10.069Z,19.68
2023-05-18T10:28:39.166Z,19.37
2023-05-18T10:31:07.014Z,19.68
2023-05-18T10:33:39.334Z,19.51
2023-05-18T10:36:07.637Z,19.19
2023-05-18T10:38:38.844Z,18.91
2023-05-18T10:41:06.174Z,19.13
2023-05-18T10:43:33.780Z,18.69
2023-05-18T10:46:01.589Z,18.82
2023-05-18T10:48:29.704Z,18.78
2023-05-18T10:50:57.911Z,18.92
2023-05-18T10:53:30.018Z,18.99
2023-05-18T10:55:56.827Z,19.03
2023-05-18T10:58:28.052Z,19.28
2023-05-18T11:01:03.221Z,19.87
2023-05-18T11:03:33.267Z,19.10
2023-05-18T11:06:08.813Z,19.12
2023-05-18T11:08:49.882Z,19.16
2023-05-18T11:11:19.357Z,19.17
2023-05-18T11:13:51.339Z,19.36
2023-05-18T11:16:19.912Z,19.49
2023-05-18T11:18:49.952Z,19.13
2023-05-18T11:21:29.117Z,19.78
2023-05-18T11:24:24.948Z,19.39
2023-05-18T11:26:55.767Z,20.05
2023-05-18T11:29:35.629Z,20.02
2023-05-18T11:32:02.858Z,19.29
2023-05-18T11:34:45.434Z,19.68
2023-05-18T11:37:32.060Z,19.40
2023-05-18T11:40:01.618Z,19.13
2023-05-18T11:42:36.160Z,19.34
2023-05-18T11:45:10.204Z,19.19
2023-05-18T11:47:39.948Z,19.81
2023-05-18T11:50:08.808Z,19.22
2023-05-18T11:52:49.342Z,19.86
2023-05-18T11:55:17.421Z,19.24
2023-05-18T11:57:47.470Z,19.43
2023-05-18T12:00:16.193Z,18.96
2023-05-18T12:02:45.471Z,18.90
2023-05-18T12:05:13.203Z,19.02
2023-05-18T12:07:40.797Z,19.14
2023-05-18T12:10:09.034Z,18.45
2023-05-18T12:12:36.325Z,19.19
2023-05-18T12:15:05.621Z,19.00
2023-05-18T12:17:42.279Z,18.77
2023-05-18T12:20:13.515Z,19.18
2023-05-18T12:22:41.898Z,19.26
2023-05-18T12:25:09.848Z,19.32
2023-05-18T12:27:41.088Z,19.72
2023-05-18T12:30:18.020Z,19.54
2023-05-18T12:32:47.207Z,19.42
2023-05-18T12:35:14.192Z,19.55
2023-05-18T12:37:45.950Z,18.96
2023-05-18T12:40:15.147Z,19.06
2023-05-18T12:43:03.399Z,19.52
2023-05-18T12:45:34.721Z,19.16
2023-05-18T12:48:12.143Z,18.98
2023-05-18T12:50:49.413Z,19.50
2023-05-18T12:53:17.284Z,19.64
2023-05-18T12:55:44.409Z,19.39
2023-05-18T12:58:19.365Z,19.52
2023-05-18T13:00:48.793Z,19.67
2023-05-18T13:03:23.077Z,19.55
2023-05-18T13:06:04.703Z,19.31
2023-05-18T13:08:36.287Z,19.81
2023-05-18T13:11:13.820Z,19.66
2023-05-18T13:14:01.923Z,20.05
2023-05-18T13:16:30.537Z,19.97
2023-05-18T13:19:02.538Z,20.17
2023-05-18T13:21:29.880Z,19.72
2023-05-18T13:23:56.789Z,19.81
2023-05-18T13:26:24.681Z,19.56
2023-05-18T13:28:54.565Z,19.58
2023-05-18T13:31:22.441Z,19.75
2023-05-18T13:33:50.172Z,19.64
2023-05-18T13:36:17.760Z,19.37
2023-05-18T13:38:44.875Z,19.30
2023-05-18T13:41:12.607Z,19.92
2023-05-18T13:43:39.679Z,19.62
2023-05-18T13:46:06.693Z,19.96
2023-05-18T13:48:33.682Z,20.31
2023-05-18T13:51:01.183Z,19.79
2023-05-18T13:53:28.158Z,19.40
2023-05-18T13:55:58.191Z,19.67
2023-05-18T13:58:25.144Z,19.76
2023-05-18T14:00:54.039Z,20.08
2023-05-18T14:03:21.034Z,19.40
2023-05-18T14:05:47.890Z,19.64
2023-05-18T14:08:14.879Z,20.13
2023-05-18T14:10:42.231Z,20.03
2023-05-18T14:13:09.394Z,19.67
2023-05-18T14:15:36.596Z,19.92
2023-05-18T14:18:06.746Z,19.71
2023-05-18T14:20:35.213Z,19.94
2023-05-18T14:23:04.430Z,19.79
2023-05-18T14:25:31.883Z,19.92
2023-05-18T14:27:59.369Z,19.96
2023-05-18T14:30:26.698Z,19.71
2023-05-18T14:32:56.287Z,20.43
2023-05-18T14:35:23.228Z,20.29
2023-05-18T14:37:50.006Z,20.39
2023-05-18T14:40:17.311Z,19.53
2023-05-18T14:42:44.388Z,19.90
2023-05-18T14:45:11.363Z,20.20
2023-05-18T14:47:38.219Z,20.23
2023-05-18T14:50:05.679Z,20.41
2023-05-18T14:52:32.535Z,20.10
2023-05-18T14:54:59.406Z,19.79
2023-05-18T14:57:26.904Z,19.92
2023-05-18T14:59:54.067Z,20.05
2023-05-18T15:02:20.948Z,19.93
2023-05-18T15:04:47.810Z,20.40
2023-05-18T15:07:14.701Z,20.29
2023-05-18T15:09:41.889Z,20.69
2023-05-18T15:12:09.266Z,20.13
2023-05-18T15:14:36.767Z,19.65
2023-05-18T15:17:03.976Z,19.70
2023-05-18T15:19:30.879Z,19.53
2023-05-18T15:21:57.836Z,19.89
2023-05-18T15:24:26.358Z,19.44
2023-05-18T15:26:53.231Z,19.71
2023-05-18T15:29:20.751Z,19.84
2023-05-18T15:31:51.397Z,19.45
2023-05-18T15:34:19.657Z,20.09
2023-05-18T15:36:47.273Z,19.88
2023-05-18T15:39:14.609Z,19.80
2023-05-18T15:41:41.455Z,19.92
2023-05-18T15:44:08.339Z,20.03
2023-05-18T15:46:36.040Z,19.61
2023-05-18T15:49:02.996Z,19.52
2023-05-18T15:51:31.065Z,20.14
2023-05-18T15:53:58.307Z,20.23
2023-05-18T15:56:25.992Z,20.06
2023-05-18T15:58:53.121Z,20.22
2023-05-18T16:01:19.976Z,19.76
2023-05-18T16:03:47.318Z,19.61
2023-05-18T16:06:14.188Z,20.01
2023-05-18T16:08:41.307Z,19.39
2023-05-18T16:11:08.315Z,19.63
2023-05-18T16:13:35.297Z,19.85
2023-05-18T16:16:03.770Z,19.92
2023-05-18T16:18:30.629Z,19.79
2023-05-18T16:20:57.558Z,20.01
2023-05-18T16:23:24.902Z,19.72
2023-05-18T16:25:51.873Z,19.55
2023-05-18T16:28:19.086Z,19.87
2023-05-18T16:30:46.819Z,19.88
2023-05-18T16:33:14.255Z,19.77
2023-05-18T16:35:41.250Z,19.76
2023-05-18T16:38:08.139Z,20.02
2023-05-18T16:40:35.577Z,19.81
2023-05-18T16:43:02.532Z,19.74
2023-05-18T16:45:31.036Z,19.51
2023-05-18T16:48:08.179Z,19.23
2023-05-18T16:50:35.846Z,19.43
2023-05-18T16:53:03.386Z,19.50
2023-05-18T16:55:31.705Z,19.68
2023-05-18T16:57:58.556Z,19.79
2023-05-18T17:00:25.801Z,19.77
2023-05-18T17:02:52.871Z,19.55
2023-05-18T17:05:23.400Z,19.55
2023-05-18T17:07:53.701Z,19.36
2023-05-18T17:10:20.596Z,19.54
2023-05-18T17:12:48.269Z,19.20
2023-05-18T17:15:18.379Z,19.19
2023-05-18T17:17:45.801Z,19.23
2023-05-18T17:20:13.211Z,19.65
2023-05-18T17:22:40.262Z,19.54
2023-05-18T17:25:08.181Z,19.46
2023-05-18T17:27:35.168Z,19.00
2023-05-18T17:30:02.661Z,19.12
2023-05-18T17:32:30.218Z,19.12
2023-05-18T17:34:57.141Z,19.24
2023-05-18T17:37:24.157Z,19.11
2023-05-18T17:39:51.061Z,19.22
2023-05-18T17:42:18.170Z,19.05
2023-05-18T17:44:47.644Z,19.27
2023-05-18T17:47:14.699Z,19.01
2023-05-18T17:49:42.008Z,19.23
2023-05-18T17:52:09.005Z,19.18
2023-05-18T17:54:36.225Z,19.09
2023-05-18T17:57:03.240Z,18.88
2023-05-18T17:59:30.104Z,18.96
2023-05-18T18:01:57.382Z,18.70
2023-05-18T18:04:24.599Z,19.02
2023-05-18T18:06:54.708Z,19.11
2023-05-18T18:09:22.531Z,19.10
2023-05-18T18:11:49.489Z,19.32
2023-05-18T18:14:17.411Z,19.44
2023-05-18T18:16:48.304Z,19.48
2023-05-18T18:19:15.448Z,18.99
2023-05-18T18:21:42.366Z,19.19
2023-05-18T18:24:09.330Z,18.71
2023-05-18T18:26:41.158Z,18.89
2023-05-18T18:29:07.956Z,19.13
2023-05-18T18:31:38.276Z,19.23
2023-05-18T18:34:05.403Z,18.99
2023-05-18T18:36:32.402Z,18.96
2023-05-18T18:38:59.372Z,18.53
2023-05-18T18:41:26.303Z,18.57
2023-05-18T18:43:56.061Z,18.63
2023-05-18T18:46:22.847Z,18.95
2023-05-18T18:48:49.925Z,18.86
2023-05-18T18:51:16.798Z,19.01
2023-05-18T18:53:43.565Z,19.14
2023-05-18T18:56:11.170Z,19.09
2023-05-18T18:58:38.040Z,18.98
2023-05-18T19:01:04.903Z,18.60
2023-05-18T19:03:33.055Z,18.99
2023-05-18T19:06:00.229Z,18.42
2023-05-18T19:08:27.287Z,18.90
2023-05-18T19:10:55.037Z,18.77
2023-05-18T19:13:22.394Z,18.58
2023-05-18T19:15:49.444Z,18.64
2023-05-18T19:18:16.337Z,18.32
2023-05-18T19:20:43.283Z,18.31
2023-05-18T19:23:10.007Z,18.60
2023-05-18T19:25:36.914Z,18.48
2023-05-18T19:28:03.868Z,18.65
2023-05-18T19:30:30.717Z,18.56
2023-05-18T19:32:57.547Z,18.39
2023-05-18T19:35:24.558Z,18.27
2023-05-18T19:37:51.702Z,18.37
2023-05-18T19:40:18.579Z,18.34
2023-05-18T19:42:45.351Z,18.25
2023-05-18T19:45:12.235Z,18.37
2023-05-18T19:47:39.393Z,18.42
2023-05-18T19:50:07.176Z,17.93
2023-05-18T19:52:36.097Z,17.85
2023-05-18T19:55:03.048Z,18.34
2023-05-18T19:57:30.036Z,17.99
2023-05-18T19:59:57.811Z,18.02
2023-05-18T20:02:24.903Z,18.19
2023-05-18T20:04:53.380Z,18.09
2023-05-18T20:07:20.704Z,17.83
2023-05-18T20:09:47.614Z,17.82
2023-05-18T20:12:15.399Z,17.48
2023-05-18T20:14:43.508Z,17.67
2023-05-18T20:17:10.406Z,17.78
2023-05-18T20:19:37.890Z,17.39
2023-05-18T20:22:05.253Z,17.80
2023-05-18T20:24:32.999Z,17.59
2023-05-18T20:26:59.783Z,17.54
2023-05-18T20:29:27.097Z,17.85
2023-05-18T20:31:54.831Z,18.05
2023-05-18T20:34:21.976Z,18.19
2023-05-18T20:36:49.092Z,18.06
2023-05-18T20:39:16.327Z,18.25
2023-05-18T20:41:43.100Z,18.17
2023-05-18T20:44:11.559Z,18.31
2023-05-18T20:46:42.507Z,18.16
2023-05-18T20:49:13.729Z,18.26
2023-05-18T20:51:41.136Z,18.24
2023-05-18T20:54:10.874Z,18.19
2023-05-18T20:56:38.158Z,18.31
2023-05-18T20:59:06.495Z,18.31
2023-05-18T21:01:39.255Z,18.17
2023-05-18T21:04:07.226Z,17.89
2023-05-18T21:06:41.180Z,18.01
2023-05-18T21:09:08.232Z,17.85
2023-05-18T21:11:35.330Z,18.07
2023-05-18T21:14:02.298Z,18.06
2023-05-18T21:16:31.711Z,17.98
2023-05-18T21:19:01.673Z,17.94
2023-05-18T21:21:35.828Z,17.74
2023-05-18T21:24:05.352Z,17.65
2023-05-18T21:26:38.467Z,17.69
2023-05-18T21:29:09.980Z,17.67
2023-05-18T21:31:37.081Z,17.73
2023-05-18T21:34:03.919Z,17.74
2023-05-18T21:36:36.899Z,17.72
2023-05-18T21:39:09.943Z,17.73
2023-05-18T21:41:40.271Z,17.61
2023-05-18T21:44:07.339Z,17.29
2023-05-18T21:46:35.519Z,17.36
2023-05-18T21:49:06.925Z,17.42
2023-05-18T21:51:45.428Z,17.32
2023-05-18T21:54:13.826Z,17.42
2023-05-18T21:56:42.468Z,17.30
2023-05-18T21:59:11.690Z,17.38
2023-05-18T22:01:38.631Z,17.46
2023-05-18T22:04:05.560Z,17.48
2023-05-18T22:06:34.435Z,17.28
2023-05-18T22:09:01.348Z,17.12
2023-05-18T22:11:37.336Z,17.10
2023-05-18T22:14:05.160Z,17.29
2023-05-18T22:16:31.985Z,17.28
2023-05-18T22:18:58.871Z,17.38
2023-05-18T22:21:28.372Z,17.35
2023-05-18T22:23:55.565Z,17.35
2023-05-18T22:26:22.550Z,17.34
2023-05-18T22:28:55.795Z,17.18
2023-05-18T22:31:22.715Z,17.39
2023-05-18T22:33:53.234Z,17.15
2023-05-18T22:36:21.977Z,17.16
2023-05-18T22:38:49.832Z,17.15
2023-05-18T22:41:17.581Z,16.85
2023-05-18T22:43:47.753Z,17.15
2023-05-18T22:46:14.880Z,17.02
2023-05-18T22:48:41.914Z,17.08
2023-05-18T22:51:09.169Z,17.06
2023-05-18T22:53:36.410Z,16.85
2023-05-18T22:56:03.770Z,16.86
2023-05-18T22:58:34.146Z,16.75
2023-05-18T23:01:02.333Z,16.44
2023-05-18T23:03:29.128Z,16.50
2023-05-18T23:05:57.168Z,16.18
2023-05-18T23:08:24.260Z,16.29
2023-05-18T23:10:51.155Z,16.10
2023-05-18T23:13:19.749Z,16.24
2023-05-18T23:15:47.903Z,16.46
2023-05-18T23:18:15.490Z,16.40
2023-05-18T23:20:42.420Z,16.20
2023-05-18T23:23:09.349Z,16.33
2023-05-18T23:25:36.295Z,16.24
2023-05-18T23:28:03.317Z,16.23
2023-05-18T23:30:32.501Z,16.15
2023-05-18T23:33:00.980Z,16.25
2023-05-18T23:35:28.310Z,16.00
2023-05-18T23:37:57.057Z,16.50
2023-05-18T23:40:25.051Z,16.20
2023-05-18T23:42:52.307Z,16.15
2023-05-18T23:45:19.842Z,16.21
2023-05-18T23:47:47.228Z,16.10
2023-05-18T23:50:14.595Z,16.10
2023-05-18T23:52:42.334Z,16.34
2023-05-18T23:55:11.090Z,16.23
2023-05-18T23:57:38.186Z,16.24
